< < Back
Terminal Aerodrome Forecast


Current Version              Previous Versions:   1  2  3  4  5  6  7  8  9  

Terminal Aerodrome Forecast

563
FTUS42 KTAE 120520
TAFVLD
TAF
KVLD 120520Z 1206/1306 20003KT 6SM BR BKN015
      TEMPO 1208/1210 00000KT 3SM BR SCT008 BKN011
     FM121000 00000KT 2SM BR BKN008
     FM121600 24008G18KT P6SM SCT025=

Latest METAR

500
SAUS70 KWBC 120500 RRB
MTRVLD
METAR KVLD 120453Z AUTO 19004KT 9SM CLR 08/08 A3020 RMK AO2 SLP236
T00830083 402061017


USA.gov is the U.S. government's official web portal to all federal, state and local government web resources and services.